sensor_id;sensor_type;location;lat;lon;timestamp;P1;durP1;ratioP1;P2;durP2;ratioP2
1276;SDS011;631;51.024;13.826;2023-02-16T00:01:08;36.10;;;27.73;;
1276;SDS011;631;51.024;13.826;2023-02-16T00:03:43;38.45;;;26.35;;
1276;SDS011;631;51.024;13.826;2023-02-16T00:06:08;39.07;;;26.77;;
1276;SDS011;631;51.024;13.826;2023-02-16T00:08:40;38.08;;;26.60;;
1276;SDS011;631;51.024;13.826;2023-02-16T00:11:17;38.35;;;26.95;;
1276;SDS011;631;51.024;13.826;2023-02-16T00:14:09;38.50;;;26.85;;
1276;SDS011;631;51.024;13.826;2023-02-16T00:16:36;35.88;;;25.77;;
1276;SDS011;631;51.024;13.826;2023-02-16T00:19:19;37.80;;;26.43;;
1276;SDS011;631;51.024;13.826;2023-02-16T00:21:53;42.88;;;26.63;;
1276;SDS011;631;51.024;13.826;2023-02-16T00:24:24;40.75;;;26.73;;
1276;SDS011;631;51.024;13.826;2023-02-16T00:26:51;32.88;;;25.15;;
1276;SDS011;631;51.024;13.826;2023-02-16T00:29:25;43.08;;;26.73;;
1276;SDS011;631;51.024;13.826;2023-02-16T00:31:51;38.95;;;27.83;;
1276;SDS011;631;51.024;13.826;2023-02-16T00:34:23;38.72;;;26.27;;
1276;SDS011;631;51.024;13.826;2023-02-16T00:36:52;40.67;;;28.88;;
1276;SDS011;631;51.024;13.826;2023-02-16T00:39:18;39.53;;;26.23;;
1276;SDS011;631;51.024;13.826;2023-02-16T00:41:44;41.17;;;27.50;;
1276;SDS011;631;51.024;13.826;2023-02-16T00:44:17;41.00;;;27.52;;
1276;SDS011;631;51.024;13.826;2023-02-16T00:47:09;36.92;;;26.48;;
1276;SDS011;631;51.024;13.826;2023-02-16T00:49:46;40.78;;;27.90;;
1276;SDS011;631;51.024;13.826;2023-02-16T00:54:53;39.97;;;27.40;;
1276;SDS011;631;51.024;13.826;2023-02-16T00:57:19;36.78;;;25.80;;
1276;SDS011;631;51.024;13.826;2023-02-16T00:59:46;40.95;;;26.92;;
1276;SDS011;631;51.024;13.826;2023-02-16T01:02:13;38.00;;;26.98;;
1276;SDS011;631;51.024;13.826;2023-02-16T01:04:39;38.17;;;27.27;;
1276;SDS011;631;51.024;13.826;2023-02-16T01:07:11;36.37;;;26.20;;
1276;SDS011;631;51.024;13.826;2023-02-16T01:09:56;35.20;;;25.50;;
1276;SDS011;631;51.024;13.826;2023-02-16T01:12:40;34.22;;;25.92;;
1276;SDS011;631;51.024;13.826;2023-02-16T01:15:08;35.40;;;26.30;;
1276;SDS011;631;51.024;13.826;2023-02-16T01:17:37;35.78;;;26.75;;
1276;SDS011;631;51.024;13.826;2023-02-16T01:20:02;36.47;;;26.83;;
1276;SDS011;631;51.024;13.826;2023-02-16T01:22:34;36.25;;;26.30;;
1276;SDS011;631;51.024;13.826;2023-02-16T01:25:00;38.47;;;26.10;;
1276;SDS011;631;51.024;13.826;2023-02-16T01:27:25;37.43;;;25.80;;
1276;SDS011;631;51.024;13.826;2023-02-16T01:29:51;37.90;;;27.20;;
1276;SDS011;631;51.024;13.826;2023-02-16T01:32:16;37.10;;;26.37;;
1276;SDS011;631;51.024;13.826;2023-02-16T01:34:42;37.17;;;26.27;;
1276;SDS011;631;51.024;13.826;2023-02-16T01:37:14;38.20;;;26.70;;
1276;SDS011;631;51.024;13.826;2023-02-16T01:39:40;36.40;;;26.70;;
1276;SDS011;631;51.024;13.826;2023-02-16T01:42:09;34.40;;;25.23;;
1276;SDS011;631;51.024;13.826;2023-02-16T01:45:00;36.88;;;26.40;;
1276;SDS011;631;51.024;13.826;2023-02-16T01:47:40;37.22;;;27.13;;
1276;SDS011;631;51.024;13.826;2023-02-16T01:50:23;37.90;;;27.05;;
1276;SDS011;631;51.024;13.826;2023-02-16T01:55:37;35.65;;;27.30;;
1276;SDS011;631;51.024;13.826;2023-02-16T01:58:11;35.42;;;25.40;;
1276;SDS011;631;51.024;13.826;2023-02-16T02:03:20;33.10;;;26.43;;
1276;SDS011;631;51.024;13.826;2023-02-16T02:06:14;32.72;;;23.55;;
1276;SDS011;631;51.024;13.826;2023-02-16T02:11:38;31.10;;;23.45;;
1276;SDS011;631;51.024;13.826;2023-02-16T02:16:53;33.85;;;25.20;;
1276;SDS011;631;51.024;13.826;2023-02-16T02:19:20;31.60;;;24.55;;
1276;SDS011;631;51.024;13.826;2023-02-16T02:22:01;34.13;;;25.87;;
1276;SDS011;631;51.024;13.826;2023-02-16T02:28:27;32.55;;;24.50;;
1276;SDS011;631;51.024;13.826;2023-02-16T02:33:58;31.75;;;24.15;;
1276;SDS011;631;51.024;13.826;2023-02-16T02:36:48;31.65;;;23.67;;
1276;SDS011;631;51.024;13.826;2023-02-16T02:39:27;29.27;;;23.65;;
1276;SDS011;631;51.024;13.826;2023-02-16T02:42:12;31.08;;;23.98;;
1276;SDS011;631;51.024;13.826;2023-02-16T02:44:55;31.17;;;23.73;;
1276;SDS011;631;51.024;13.826;2023-02-16T02:47:35;32.20;;;23.75;;
1276;SDS011;631;51.024;13.826;2023-02-16T02:50:28;32.30;;;23.65;;
1276;SDS011;631;51.024;13.826;2023-02-16T02:52:56;29.30;;;23.92;;
1276;SDS011;631;51.024;13.826;2023-02-16T02:55:25;32.58;;;23.40;;
1276;SDS011;631;51.024;13.826;2023-02-16T02:58:12;28.50;;;22.98;;
1276;SDS011;631;51.024;13.826;2023-02-16T03:00:57;34.55;;;23.67;;
1276;SDS011;631;51.024;13.826;2023-02-16T03:05:56;35.10;;;23.95;;
1276;SDS011;631;51.024;13.826;2023-02-16T03:08:32;28.88;;;23.67;;
1276;SDS011;631;51.024;13.826;2023-02-16T03:11:34;31.55;;;25.02;;
1276;SDS011;631;51.024;13.826;2023-02-16T03:14:18;30.20;;;24.02;;
1276;SDS011;631;51.024;13.826;2023-02-16T03:16:50;32.38;;;24.55;;
1276;SDS011;631;51.024;13.826;2023-02-16T03:19:43;32.15;;;24.30;;
1276;SDS011;631;51.024;13.826;2023-02-16T03:22:30;32.00;;;23.92;;
1276;SDS011;631;51.024;13.826;2023-02-16T03:25:16;32.08;;;24.25;;
1276;SDS011;631;51.024;13.826;2023-02-16T03:28:01;34.03;;;25.17;;
1276;SDS011;631;51.024;13.826;2023-02-16T03:30:49;31.10;;;24.33;;
1276;SDS011;631;51.024;13.826;2023-02-16T03:33:16;31.15;;;23.73;;
1276;SDS011;631;51.024;13.826;2023-02-16T03:35:42;28.58;;;23.75;;
1276;SDS011;631;51.024;13.826;2023-02-16T03:38:10;31.80;;;24.15;;
1276;SDS011;631;51.024;13.826;2023-02-16T03:40:36;30.60;;;23.42;;
1276;SDS011;631;51.024;13.826;2023-02-16T03:43:05;31.67;;;24.60;;
1276;SDS011;631;51.024;13.826;2023-02-16T03:45:33;35.17;;;25.75;;
1276;SDS011;631;51.024;13.826;2023-02-16T03:48:01;35.03;;;24.60;;
1276;SDS011;631;51.024;13.826;2023-02-16T03:50:27;37.38;;;26.30;;
1276;SDS011;631;51.024;13.826;2023-02-16T03:52:54;33.22;;;24.67;;
1276;SDS011;631;51.024;13.826;2023-02-16T03:55:41;33.25;;;23.55;;
1276;SDS011;631;51.024;13.826;2023-02-16T03:58:09;32.17;;;23.88;;
1276;SDS011;631;51.024;13.826;2023-02-16T04:00:37;30.17;;;25.05;;
1276;SDS011;631;51.024;13.826;2023-02-16T04:03:03;31.20;;;22.33;;
1276;SDS011;631;51.024;13.826;2023-02-16T04:05:29;38.13;;;23.85;;
1276;SDS011;631;51.024;13.826;2023-02-16T04:07:55;34.30;;;24.80;;
1276;SDS011;631;51.024;13.826;2023-02-16T04:10:21;38.53;;;25.13;;
1276;SDS011;631;51.024;13.826;2023-02-16T04:12:47;36.17;;;24.88;;
1276;SDS011;631;51.024;13.826;2023-02-16T04:15:24;38.17;;;26.27;;
1276;SDS011;631;51.024;13.826;2023-02-16T04:17:51;36.70;;;25.05;;
1276;SDS011;631;51.024;13.826;2023-02-16T04:20:19;33.00;;;24.20;;
1276;SDS011;631;51.024;13.826;2023-02-16T04:22:47;35.00;;;25.00;;
1276;SDS011;631;51.024;13.826;2023-02-16T04:25:13;34.15;;;24.50;;
1276;SDS011;631;51.024;13.826;2023-02-16T04:27:39;36.42;;;24.50;;
1276;SDS011;631;51.024;13.826;2023-02-16T04:30:06;33.92;;;24.23;;
1276;SDS011;631;51.024;13.826;2023-02-16T04:32:34;36.90;;;24.08;;
1276;SDS011;631;51.024;13.826;2023-02-16T04:35:00;34.20;;;23.90;;
1276;SDS011;631;51.024;13.826;2023-02-16T04:37:26;38.53;;;26.77;;
1276;SDS011;631;51.024;13.826;2023-02-16T04:39:51;34.20;;;25.00;;
1276;SDS011;631;51.024;13.826;2023-02-16T04:42:17;30.57;;;24.33;;
1276;SDS011;631;51.024;13.826;2023-02-16T04:44:43;33.90;;;24.47;;
1276;SDS011;631;51.024;13.826;2023-02-16T04:47:08;35.83;;;23.67;;
1276;SDS011;631;51.024;13.826;2023-02-16T04:49:34;37.03;;;25.80;;
1276;SDS011;631;51.024;13.826;2023-02-16T04:52:00;32.00;;;24.60;;
1276;SDS011;631;51.024;13.826;2023-02-16T04:54:27;36.85;;;24.10;;
1276;SDS011;631;51.024;13.826;2023-02-16T04:56:54;35.88;;;25.35;;
1276;SDS011;631;51.024;13.826;2023-02-16T04:59:19;37.93;;;23.77;;
1276;SDS011;631;51.024;13.826;2023-02-16T05:01:45;31.03;;;23.13;;
1276;SDS011;631;51.024;13.826;2023-02-16T05:04:11;36.87;;;24.43;;
1276;SDS011;631;51.024;13.826;2023-02-16T05:06:36;40.37;;;25.00;;
1276;SDS011;631;51.024;13.826;2023-02-16T05:09:03;35.08;;;24.65;;
1276;SDS011;631;51.024;13.826;2023-02-16T05:11:29;33.30;;;24.30;;
1276;SDS011;631;51.024;13.826;2023-02-16T05:14:22;33.60;;;23.98;;
1276;SDS011;631;51.024;13.826;2023-02-16T05:17:08;31.02;;;21.73;;
1276;SDS011;631;51.024;13.826;2023-02-16T05:19:39;40.05;;;25.25;;
1276;SDS011;631;51.024;13.826;2023-02-16T05:22:05;31.60;;;22.60;;
1276;SDS011;631;51.024;13.826;2023-02-16T05:24:31;36.50;;;23.73;;
1276;SDS011;631;51.024;13.826;2023-02-16T05:26:58;36.45;;;23.77;;
1276;SDS011;631;51.024;13.826;2023-02-16T05:29:24;37.63;;;24.48;;
1276;SDS011;631;51.024;13.826;2023-02-16T05:31:50;37.40;;;24.40;;
1276;SDS011;631;51.024;13.826;2023-02-16T05:34:16;36.80;;;25.53;;
1276;SDS011;631;51.024;13.826;2023-02-16T05:36:42;33.57;;;23.77;;
1276;SDS011;631;51.024;13.826;2023-02-16T05:39:07;37.17;;;24.10;;
1276;SDS011;631;51.024;13.826;2023-02-16T05:41:33;36.87;;;25.57;;
1276;SDS011;631;51.024;13.826;2023-02-16T05:43:59;37.40;;;25.47;;
1276;SDS011;631;51.024;13.826;2023-02-16T05:46:26;37.05;;;24.65;;
1276;SDS011;631;51.024;13.826;2023-02-16T05:48:53;38.90;;;24.42;;
1276;SDS011;631;51.024;13.826;2023-02-16T05:51:19;36.10;;;25.00;;
1276;SDS011;631;51.024;13.826;2023-02-16T05:53:45;39.25;;;23.70;;
1276;SDS011;631;51.024;13.826;2023-02-16T05:56:11;32.50;;;23.27;;
1276;SDS011;631;51.024;13.826;2023-02-16T05:58:37;35.78;;;24.48;;
1276;SDS011;631;51.024;13.826;2023-02-16T06:01:03;37.13;;;24.97;;
1276;SDS011;631;51.024;13.826;2023-02-16T06:03:29;34.38;;;24.35;;
1276;SDS011;631;51.024;13.826;2023-02-16T06:05:57;40.58;;;26.15;;
1276;SDS011;631;51.024;13.826;2023-02-16T06:08:24;38.67;;;24.17;;
1276;SDS011;631;51.024;13.826;2023-02-16T06:10:50;36.63;;;25.37;;
1276;SDS011;631;51.024;13.826;2023-02-16T06:13:17;40.58;;;25.38;;
1276;SDS011;631;51.024;13.826;2023-02-16T06:15:43;39.25;;;25.52;;
1276;SDS011;631;51.024;13.826;2023-02-16T06:18:09;40.33;;;24.60;;
1276;SDS011;631;51.024;13.826;2023-02-16T06:20:35;38.67;;;24.80;;
1276;SDS011;631;51.024;13.826;2023-02-16T06:23:02;35.30;;;24.40;;
1276;SDS011;631;51.024;13.826;2023-02-16T06:25:27;40.80;;;25.53;;
1276;SDS011;631;51.024;13.826;2023-02-16T06:27:53;36.50;;;25.13;;
1276;SDS011;631;51.024;13.826;2023-02-16T06:30:21;36.13;;;25.02;;
1276;SDS011;631;51.024;13.826;2023-02-16T06:32:47;41.28;;;26.08;;
1276;SDS011;631;51.024;13.826;2023-02-16T06:35:12;37.20;;;24.70;;
1276;SDS011;631;51.024;13.826;2023-02-16T06:37:38;37.87;;;24.93;;
1276;SDS011;631;51.024;13.826;2023-02-16T06:40:04;38.37;;;25.00;;
1276;SDS011;631;51.024;13.826;2023-02-16T06:42:30;41.05;;;26.00;;
1276;SDS011;631;51.024;13.826;2023-02-16T06:44:56;40.60;;;26.37;;
1276;SDS011;631;51.024;13.826;2023-02-16T06:47:21;36.73;;;25.70;;
1276;SDS011;631;51.024;13.826;2023-02-16T06:49:47;40.40;;;26.33;;
1276;SDS011;631;51.024;13.826;2023-02-16T06:52:12;38.00;;;25.83;;
1276;SDS011;631;51.024;13.826;2023-02-16T06:54:41;37.38;;;25.60;;
1276;SDS011;631;51.024;13.826;2023-02-16T06:57:06;41.97;;;25.50;;
1276;SDS011;631;51.024;13.826;2023-02-16T06:59:32;43.53;;;27.30;;
1276;SDS011;631;51.024;13.826;2023-02-16T07:01:57;37.00;;;25.10;;
1276;SDS011;631;51.024;13.826;2023-02-16T07:04:23;43.67;;;27.73;;
1276;SDS011;631;51.024;13.826;2023-02-16T07:06:49;43.33;;;27.13;;
1276;SDS011;631;51.024;13.826;2023-02-16T07:09:14;40.37;;;27.20;;
1276;SDS011;631;51.024;13.826;2023-02-16T07:11:40;42.80;;;25.30;;
1276;SDS011;631;51.024;13.826;2023-02-16T07:14:05;42.27;;;25.30;;
1276;SDS011;631;51.024;13.826;2023-02-16T07:16:31;39.40;;;25.80;;
1276;SDS011;631;51.024;13.826;2023-02-16T07:18:57;41.60;;;27.00;;
1276;SDS011;631;51.024;13.826;2023-02-16T07:21:23;34.72;;;25.35;;
1276;SDS011;631;51.024;13.826;2023-02-16T07:23:49;36.87;;;25.63;;
1276;SDS011;631;51.024;13.826;2023-02-16T07:26:14;31.63;;;24.00;;
1276;SDS011;631;51.024;13.826;2023-02-16T07:28:40;36.13;;;24.60;;
1276;SDS011;631;51.024;13.826;2023-02-16T07:31:10;37.97;;;25.50;;
1276;SDS011;631;51.024;13.826;2023-02-16T07:33:37;34.28;;;24.63;;
1276;SDS011;631;51.024;13.826;2023-02-16T07:36:03;31.75;;;23.85;;
1276;SDS011;631;51.024;13.826;2023-02-16T07:38:29;39.53;;;26.00;;
1276;SDS011;631;51.024;13.826;2023-02-16T07:40:55;36.50;;;26.13;;
1276;SDS011;631;51.024;13.826;2023-02-16T07:43:21;33.05;;;23.73;;
1276;SDS011;631;51.024;13.826;2023-02-16T07:45:48;34.92;;;23.95;;
1276;SDS011;631;51.024;13.826;2023-02-16T07:48:14;35.57;;;24.43;;
1276;SDS011;631;51.024;13.826;2023-02-16T07:50:39;38.83;;;24.97;;
1276;SDS011;631;51.024;13.826;2023-02-16T07:53:05;35.23;;;25.37;;
1276;SDS011;631;51.024;13.826;2023-02-16T07:55:31;35.17;;;24.58;;
1276;SDS011;631;51.024;13.826;2023-02-16T07:57:57;33.40;;;24.67;;
1276;SDS011;631;51.024;13.826;2023-02-16T08:00:24;36.65;;;25.60;;
1276;SDS011;631;51.024;13.826;2023-02-16T08:02:50;35.95;;;25.00;;
1276;SDS011;631;51.024;13.826;2023-02-16T08:05:16;34.03;;;24.37;;
1276;SDS011;631;51.024;13.826;2023-02-16T08:07:42;36.33;;;25.10;;
1276;SDS011;631;51.024;13.826;2023-02-16T08:10:10;34.15;;;24.85;;
1276;SDS011;631;51.024;13.826;2023-02-16T08:12:37;31.92;;;25.02;;
1276;SDS011;631;51.024;13.826;2023-02-16T08:15:03;33.00;;;25.80;;
1276;SDS011;631;51.024;13.826;2023-02-16T08:17:28;31.67;;;23.90;;
1276;SDS011;631;51.024;13.826;2023-02-16T08:19:54;31.23;;;24.20;;
1276;SDS011;631;51.024;13.826;2023-02-16T08:22:19;31.90;;;22.17;;
1276;SDS011;631;51.024;13.826;2023-02-16T08:24:45;28.13;;;23.20;;
1276;SDS011;631;51.024;13.826;2023-02-16T08:27:11;27.70;;;22.23;;
1276;SDS011;631;51.024;13.826;2023-02-16T08:29:36;27.20;;;22.90;;
1276;SDS011;631;51.024;13.826;2023-02-16T08:32:02;29.43;;;22.53;;
1276;SDS011;631;51.024;13.826;2023-02-16T08:34:31;27.63;;;22.63;;
1276;SDS011;631;51.024;13.826;2023-02-16T08:36:58;25.60;;;22.88;;
1276;SDS011;631;51.024;13.826;2023-02-16T08:39:25;25.92;;;22.02;;
1276;SDS011;631;51.024;13.826;2023-02-16T08:41:53;26.30;;;22.98;;
1276;SDS011;631;51.024;13.826;2023-02-16T08:44:19;25.23;;;22.58;;
1276;SDS011;631;51.024;13.826;2023-02-16T08:46:47;25.63;;;22.38;;
1276;SDS011;631;51.024;13.826;2023-02-16T08:49:14;23.67;;;21.15;;
1276;SDS011;631;51.024;13.826;2023-02-16T08:51:43;24.80;;;21.43;;
1276;SDS011;631;51.024;13.826;2023-02-16T08:54:21;25.90;;;22.20;;
1276;SDS011;631;51.024;13.826;2023-02-16T08:56:53;29.07;;;23.90;;
1276;SDS011;631;51.024;13.826;2023-02-16T08:59:20;26.33;;;23.53;;
1276;SDS011;631;51.024;13.826;2023-02-16T09:01:46;25.87;;;23.07;;
1276;SDS011;631;51.024;13.826;2023-02-16T09:04:12;31.00;;;24.73;;
1276;SDS011;631;51.024;13.826;2023-02-16T09:06:40;26.43;;;23.80;;
1276;SDS011;631;51.024;13.826;2023-02-16T09:09:07;26.17;;;23.30;;
1276;SDS011;631;51.024;13.826;2023-02-16T09:11:34;26.93;;;24.23;;
1276;SDS011;631;51.024;13.826;2023-02-16T09:14:00;27.27;;;24.57;;
1276;SDS011;631;51.024;13.826;2023-02-16T09:16:26;28.40;;;25.50;;
1276;SDS011;631;51.024;13.826;2023-02-16T09:18:53;25.67;;;23.10;;
1276;SDS011;631;51.024;13.826;2023-02-16T09:21:23;28.33;;;25.47;;
1276;SDS011;631;51.024;13.826;2023-02-16T09:23:49;27.90;;;24.93;;
1276;SDS011;631;51.024;13.826;2023-02-16T09:26:19;28.37;;;25.47;;
1276;SDS011;631;51.024;13.826;2023-02-16T09:28:46;27.03;;;24.20;;
1276;SDS011;631;51.024;13.826;2023-02-16T09:33:50;27.73;;;24.83;;
1276;SDS011;631;51.024;13.826;2023-02-16T09:36:21;27.20;;;24.40;;
1276;SDS011;631;51.024;13.826;2023-02-16T09:38:46;29.27;;;26.20;;
1276;SDS011;631;51.024;13.826;2023-02-16T09:43:59;27.03;;;24.17;;
1276;SDS011;631;51.024;13.826;2023-02-16T09:46:39;28.30;;;25.30;;
1276;SDS011;631;51.024;13.826;2023-02-16T09:49:08;29.57;;;26.57;;
1276;SDS011;631;51.024;13.826;2023-02-16T09:54:53;28.77;;;25.87;;
1276;SDS011;631;51.024;13.826;2023-02-16T10:02:29;27.20;;;24.67;;
1276;SDS011;631;51.024;13.826;2023-02-16T10:07:50;28.33;;;25.53;;
1276;SDS011;631;51.024;13.826;2023-02-16T10:10:37;29.07;;;26.27;;
1276;SDS011;631;51.024;13.826;2023-02-16T10:13:14;27.87;;;25.17;;
1276;SDS011;631;51.024;13.826;2023-02-16T10:15:45;31.43;;;28.43;;
1276;SDS011;631;51.024;13.826;2023-02-16T10:18:25;29.13;;;26.30;;
1276;SDS011;631;51.024;13.826;2023-02-16T10:20:58;28.80;;;26.00;;
1276;SDS011;631;51.024;13.826;2023-02-16T10:23:47;31.40;;;28.07;;
1276;SDS011;631;51.024;13.826;2023-02-16T10:26:19;29.83;;;26.87;;
1276;SDS011;631;51.024;13.826;2023-02-16T10:28:54;30.30;;;27.30;;
1276;SDS011;631;51.024;13.826;2023-02-16T10:48:02;28.53;;;25.73;;
1276;SDS011;631;51.024;13.826;2023-02-16T10:50:30;29.90;;;26.97;;
1276;SDS011;631;51.024;13.826;2023-02-16T10:53:11;30.57;;;27.63;;
1276;SDS011;631;51.024;13.826;2023-02-16T10:55:48;30.27;;;27.23;;
1276;SDS011;631;51.024;13.826;2023-02-16T10:58:21;30.20;;;27.10;;
1276;SDS011;631;51.024;13.826;2023-02-16T11:03:49;29.47;;;26.67;;
1276;SDS011;631;51.024;13.826;2023-02-16T11:08:48;28.63;;;26.03;;
1276;SDS011;631;51.024;13.826;2023-02-16T11:11:23;28.63;;;26.03;;
1276;SDS011;631;51.024;13.826;2023-02-16T11:13:56;29.00;;;26.27;;
1276;SDS011;631;51.024;13.826;2023-02-16T11:16:24;29.33;;;26.63;;
1276;SDS011;631;51.024;13.826;2023-02-16T11:19:00;28.67;;;26.17;;
1276;SDS011;631;51.024;13.826;2023-02-16T11:21:46;28.70;;;26.13;;
1276;SDS011;631;51.024;13.826;2023-02-16T11:26:58;29.40;;;26.83;;
1276;SDS011;631;51.024;13.826;2023-02-16T11:29:27;30.13;;;27.33;;
1276;SDS011;631;51.024;13.826;2023-02-16T11:31:53;29.67;;;27.03;;
1276;SDS011;631;51.024;13.826;2023-02-16T11:39:54;29.73;;;27.13;;
1276;SDS011;631;51.024;13.826;2023-02-16T11:44:56;29.53;;;26.73;;
1276;SDS011;631;51.024;13.826;2023-02-16T11:47:36;30.20;;;27.43;;
1276;SDS011;631;51.024;13.826;2023-02-16T11:50:18;30.10;;;27.50;;
1276;SDS011;631;51.024;13.826;2023-02-16T11:52:48;28.37;;;25.73;;
1276;SDS011;631;51.024;13.826;2023-02-16T11:55:21;30.80;;;28.20;;
1276;SDS011;631;51.024;13.826;2023-02-16T11:57:50;28.97;;;26.37;;
1276;SDS011;631;51.024;13.826;2023-02-16T12:00:17;27.40;;;24.90;;
1276;SDS011;631;51.024;13.826;2023-02-16T12:02:49;28.90;;;26.50;;
1276;SDS011;631;51.024;13.826;2023-02-16T12:11:04;28.07;;;25.53;;
1276;SDS011;631;51.024;13.826;2023-02-16T12:13:48;30.43;;;27.73;;
1276;SDS011;631;51.024;13.826;2023-02-16T12:21:54;30.93;;;28.30;;
1276;SDS011;631;51.024;13.826;2023-02-16T12:27:29;29.87;;;27.33;;
1276;SDS011;631;51.024;13.826;2023-02-16T12:32:54;30.80;;;28.10;;
1276;SDS011;631;51.024;13.826;2023-02-16T12:43:37;29.90;;;27.03;;
1276;SDS011;631;51.024;13.826;2023-02-16T12:46:17;31.43;;;28.63;;
1276;SDS011;631;51.024;13.826;2023-02-16T12:48:58;31.43;;;28.43;;
1276;SDS011;631;51.024;13.826;2023-02-16T12:51:38;33.83;;;30.70;;
1276;SDS011;631;51.024;13.826;2023-02-16T12:56:56;33.03;;;29.90;;
1276;SDS011;631;51.024;13.826;2023-02-16T12:59:38;33.20;;;30.10;;
1276;SDS011;631;51.024;13.826;2023-02-16T13:02:15;31.60;;;28.60;;
1276;SDS011;631;51.024;13.826;2023-02-16T13:07:28;31.20;;;28.23;;
1276;SDS011;631;51.024;13.826;2023-02-16T13:10:03;32.03;;;28.83;;
1276;SDS011;631;51.024;13.826;2023-02-16T13:13:05;31.00;;;28.03;;
1276;SDS011;631;51.024;13.826;2023-02-16T13:15:41;32.73;;;29.43;;
1276;SDS011;631;51.024;13.826;2023-02-16T13:18:28;33.20;;;29.73;;
1276;SDS011;631;51.024;13.826;2023-02-16T13:21:09;33.33;;;29.93;;
1276;SDS011;631;51.024;13.826;2023-02-16T13:23:51;33.67;;;30.23;;
1276;SDS011;631;51.024;13.826;2023-02-16T13:46:26;34.03;;;30.67;;
1276;SDS011;631;51.024;13.826;2023-02-16T13:48:52;34.57;;;30.97;;
1276;SDS011;631;51.024;13.826;2023-02-16T13:51:20;34.27;;;30.70;;
1276;SDS011;631;51.024;13.826;2023-02-16T13:53:52;34.90;;;28.80;;
1276;SDS011;631;51.024;13.826;2023-02-16T13:56:20;30.90;;;27.73;;
1276;SDS011;631;51.024;13.826;2023-02-16T13:58:49;32.70;;;29.30;;
1276;SDS011;631;51.024;13.826;2023-02-16T14:01:33;34.47;;;30.87;;
1276;SDS011;631;51.024;13.826;2023-02-16T14:04:04;34.40;;;30.70;;
1276;SDS011;631;51.024;13.826;2023-02-16T14:06:35;33.50;;;29.70;;
1276;SDS011;631;51.024;13.826;2023-02-16T14:14:29;32.73;;;29.33;;
1276;SDS011;631;51.024;13.826;2023-02-16T14:19:38;31.93;;;28.43;;
1276;SDS011;631;51.024;13.826;2023-02-16T14:22:20;32.53;;;29.03;;
1276;SDS011;631;51.024;13.826;2023-02-16T14:27:49;30.93;;;27.83;;
1276;SDS011;631;51.024;13.826;2023-02-16T14:35:40;32.87;;;28.57;;
1276;SDS011;631;51.024;13.826;2023-02-16T14:38:15;31.93;;;28.20;;
1276;SDS011;631;51.024;13.826;2023-02-16T14:46:20;35.17;;;29.70;;
1276;SDS011;631;51.024;13.826;2023-02-16T14:49:11;32.97;;;29.07;;
1276;SDS011;631;51.024;13.826;2023-02-16T15:02:34;33.90;;;30.20;;
1276;SDS011;631;51.024;13.826;2023-02-16T15:10:40;35.13;;;31.20;;
1276;SDS011;631;51.024;13.826;2023-02-16T15:13:17;35.87;;;30.80;;
1276;SDS011;631;51.024;13.826;2023-02-16T15:15:49;35.23;;;30.13;;
1276;SDS011;631;51.024;13.826;2023-02-16T15:18:18;34.40;;;30.20;;
1276;SDS011;631;51.024;13.826;2023-02-16T15:20:48;35.40;;;30.50;;
1276;SDS011;631;51.024;13.826;2023-02-16T15:25:54;34.50;;;29.93;;
1276;SDS011;631;51.024;13.826;2023-02-16T15:28:21;34.53;;;30.07;;
1276;SDS011;631;51.024;13.826;2023-02-16T15:30:55;35.00;;;30.40;;
1276;SDS011;631;51.024;13.826;2023-02-16T15:33:38;37.17;;;31.93;;
1276;SDS011;631;51.024;13.826;2023-02-16T15:36:06;39.10;;;30.23;;
1276;SDS011;631;51.024;13.826;2023-02-16T15:38:39;40.50;;;31.43;;
1276;SDS011;631;51.024;13.826;2023-02-16T15:41:08;38.07;;;31.70;;
1276;SDS011;631;51.024;13.826;2023-02-16T15:43:48;40.37;;;32.97;;
1276;SDS011;631;51.024;13.826;2023-02-16T15:46:28;38.17;;;31.00;;
1276;SDS011;631;51.024;13.826;2023-02-16T15:49:20;40.80;;;30.17;;
1276;SDS011;631;51.024;13.826;2023-02-16T15:51:56;37.73;;;30.90;;
1276;SDS011;631;51.024;13.826;2023-02-16T15:56:56;36.67;;;30.00;;
1276;SDS011;631;51.024;13.826;2023-02-16T15:59:35;36.97;;;30.73;;
1276;SDS011;631;51.024;13.826;2023-02-16T16:05:00;38.97;;;31.13;;
1276;SDS011;631;51.024;13.826;2023-02-16T16:07:30;41.75;;;31.67;;
1276;SDS011;631;51.024;13.826;2023-02-16T16:10:02;38.20;;;31.63;;
1276;SDS011;631;51.024;13.826;2023-02-16T16:12:37;38.80;;;32.38;;
1276;SDS011;631;51.024;13.826;2023-02-16T16:15:03;41.97;;;31.00;;
1276;SDS011;631;51.024;13.826;2023-02-16T16:17:30;41.22;;;32.33;;
1276;SDS011;631;51.024;13.826;2023-02-16T16:19:58;39.33;;;30.88;;
1276;SDS011;631;51.024;13.826;2023-02-16T16:23:22;44.88;;;32.70;;
1276;SDS011;631;51.024;13.826;2023-02-16T16:25:51;46.03;;;33.88;;
1276;SDS011;631;51.024;13.826;2023-02-16T16:33:51;44.13;;;32.50;;
1276;SDS011;631;51.024;13.826;2023-02-16T16:36:46;39.70;;;31.73;;
1276;SDS011;631;51.024;13.826;2023-02-16T16:42:05;43.20;;;32.03;;
1276;SDS011;631;51.024;13.826;2023-02-16T16:44:40;45.22;;;31.40;;
1276;SDS011;631;51.024;13.826;2023-02-16T16:47:22;45.22;;;32.17;;
1276;SDS011;631;51.024;13.826;2023-02-16T16:49:59;42.38;;;32.20;;
1276;SDS011;631;51.024;13.826;2023-02-16T16:52:28;45.03;;;33.92;;
1276;SDS011;631;51.024;13.826;2023-02-16T16:54:57;48.55;;;33.80;;
1276;SDS011;631;51.024;13.826;2023-02-16T16:57:23;44.33;;;33.30;;
1276;SDS011;631;51.024;13.826;2023-02-16T16:59:49;44.70;;;33.13;;
1276;SDS011;631;51.024;13.826;2023-02-16T17:02:14;42.58;;;31.90;;
1276;SDS011;631;51.024;13.826;2023-02-16T17:04:40;43.17;;;33.47;;
1276;SDS011;631;51.024;13.826;2023-02-16T17:07:06;46.97;;;32.97;;
1276;SDS011;631;51.024;13.826;2023-02-16T17:09:31;46.77;;;34.27;;
1276;SDS011;631;51.024;13.826;2023-02-16T17:11:57;48.37;;;35.40;;
1276;SDS011;631;51.024;13.826;2023-02-16T17:14:23;46.70;;;34.57;;
1276;SDS011;631;51.024;13.826;2023-02-16T17:16:49;46.85;;;33.83;;
1276;SDS011;631;51.024;13.826;2023-02-16T17:19:17;47.65;;;34.25;;
1276;SDS011;631;51.024;13.826;2023-02-16T17:21:44;43.75;;;33.60;;
1276;SDS011;631;51.024;13.826;2023-02-16T17:24:11;47.90;;;32.60;;
1276;SDS011;631;51.024;13.826;2023-02-16T17:26:37;49.03;;;36.03;;
1276;SDS011;631;51.024;13.826;2023-02-16T17:29:04;52.72;;;35.60;;
1276;SDS011;631;51.024;13.826;2023-02-16T17:31:30;46.63;;;33.75;;
1276;SDS011;631;51.024;13.826;2023-02-16T17:33:56;49.40;;;34.77;;
1276;SDS011;631;51.024;13.826;2023-02-16T17:36:22;47.47;;;34.37;;
1276;SDS011;631;51.024;13.826;2023-02-16T17:38:49;49.00;;;35.65;;
1276;SDS011;631;51.024;13.826;2023-02-16T17:41:17;46.07;;;34.60;;
1276;SDS011;631;51.024;13.826;2023-02-16T17:43:53;52.15;;;35.78;;
1276;SDS011;631;51.024;13.826;2023-02-16T17:46:19;45.20;;;33.15;;
1276;SDS011;631;51.024;13.826;2023-02-16T17:48:47;50.45;;;36.95;;
1276;SDS011;631;51.024;13.826;2023-02-16T17:51:15;49.22;;;35.55;;
1276;SDS011;631;51.024;13.826;2023-02-16T17:53:43;47.55;;;35.83;;
1276;SDS011;631;51.024;13.826;2023-02-16T17:56:12;49.40;;;35.87;;
1276;SDS011;631;51.024;13.826;2023-02-16T17:58:39;47.53;;;34.10;;
1276;SDS011;631;51.024;13.826;2023-02-16T18:01:05;44.78;;;33.78;;
1276;SDS011;631;51.024;13.826;2023-02-16T18:03:31;46.45;;;35.15;;
1276;SDS011;631;51.024;13.826;2023-02-16T18:05:57;47.97;;;36.15;;
1276;SDS011;631;51.024;13.826;2023-02-16T18:08:23;45.37;;;35.70;;